Time;durP1;ratioP1;P1;durP2;ratioP2;P2;SDS_P1;SDS_P2;PMS_P1;PMS_P2;Temp;Humidity;BMP_temperature;BMP_pressure;BME280_temperature;BME280_humidity;BME280_pressure;Samples;Min_cycle;Max_cycle;Signal;HPM_P1;HPM_P2
2024/03/02 00:00:14;;;;;;;;;1.25;1.00;;;;;8.06;81.29;99286.44;5068159;27;46117;-66
2024/03/02 00:02:44;;;;;;;;;1.50;1.00;;;;;8.06;81.43;99285.59;5063473;28;45544;-67
2024/03/02 00:05:14;;;;;;;;;1.00;1.00;;;;;8.02;81.59;99281.41;5069917;28;45397;-67
2024/03/02 00:07:44;;;;;;;;;36.75;24.00;;;;;8.01;81.38;99285.78;5082868;27;45497;-67
2024/03/02 00:10:11;;;;;;;;;48.00;36.25;;;;;8.01;81.41;99288.38;5068455;28;45734;-68
2024/03/02 00:12:40;;;;;;;;;2.75;1.50;;;;;8.01;81.37;99283.19;5070138;27;45452;-68
2024/03/02 00:15:25;;;;;;;;;3.00;1.00;;;;;8.00;81.46;99284.06;5064810;28;45378;-68
2024/03/02 00:17:55;;;;;;;;;3.00;1.00;;;;;7.97;81.66;99290.25;5055574;27;46278;-68
2024/03/02 00:20:22;;;;;;;;;3.25;0.50;;;;;7.97;81.70;99292.88;5069489;28;45434;-68
2024/03/02 00:22:48;;;;;;;;;1.25;0.75;;;;;7.94;81.75;99287.78;5070298;28;45369;-66
2024/03/02 00:25:14;;;;;;;;;5.00;1.00;;;;;7.95;81.65;99292.09;5073497;27;45251;-68
2024/03/02 00:27:39;;;;;;;;;3.25;2.00;;;;;7.96;81.71;99292.94;5071659;27;62336;-67
2024/03/02 00:30:44;;;;;;;;;1.50;1.50;;;;;7.93;81.83;99301.72;5076829;27;45497;-67
2024/03/02 00:33:10;;;;;;;;;3.00;1.75;;;;;7.93;81.91;99291.31;5070423;28;45459;-68
2024/03/02 00:35:35;;;;;;;;;3.75;1.00;;;;;7.92;81.65;99302.63;5065869;27;62870;-67
2024/03/02 00:38:06;;;;;;;;;1.00;0.75;;;;;7.89;82.24;99291.47;5074368;28;66063;-66
2024/03/02 00:40:31;;;;;;;;;2.75;0.75;;;;;7.89;82.33;99302.72;5077282;27;46163;-67
2024/03/02 00:42:56;;;;;;;;;1.00;0.00;;;;;7.89;82.23;99307.94;5058706;28;45353;-68
2024/03/02 00:45:22;;;;;;;;;1.50;1.00;;;;;7.88;82.46;99306.25;5063064;27;71643;-67
2024/03/02 00:47:47;;;;;;;;;93.75;76.00;;;;;7.88;82.32;99303.66;5080207;27;77113;-66
2024/03/02 00:50:13;;;;;;;;;11.75;9.00;;;;;7.90;82.58;99312.25;5070183;27;73503;-68
2024/03/02 00:52:39;;;;;;;;;2.25;1.25;;;;;7.92;82.42;99313.03;5065842;28;68156;-67
2024/03/02 00:55:05;;;;;;;;;1.25;1.25;;;;;7.92;82.54;99322.63;5074596;28;45460;-67
2024/03/02 00:57:34;;;;;;;;;6.25;1.75;;;;;7.91;82.37;99319.13;5072167;27;46450;-67
2024/03/02 00:59:59;;;;;;;;;2.00;1.00;;;;;7.91;82.48;99320.91;5076801;27;45336;-68
2024/03/02 01:02:25;;;;;;;;;3.50;1.00;;;;;7.89;82.29;99326.16;5069951;27;45511;-66
2024/03/02 01:04:50;;;;;;;;;2.00;1.00;;;;;7.89;82.56;99328.78;5063937;28;45317;-67
2024/03/02 01:07:15;;;;;;;;;5.00;0.00;;;;;7.88;82.48;99331.44;5069423;27;49717;-67
2024/03/02 01:09:41;;;;;;;;;3.25;2.00;;;;;7.91;82.62;99326.97;5078611;27;61769;-66
2024/03/02 01:12:07;;;;;;;;;2.00;1.00;;;;;7.93;82.61;99325.16;5073366;28;68448;-65
2024/03/02 01:14:32;;;;;;;;;1.00;1.00;;;;;7.93;82.47;99325.16;5072835;27;45473;-67
2024/03/02 01:16:58;;;;;;;;;3.00;0.75;;;;;7.92;82.51;99328.66;5072580;27;53117;-66
2024/03/02 01:19:23;;;;;;;;;116.50;87.75;;;;;7.91;82.65;99331.31;5072060;28;45219;-67
2024/03/02 01:21:50;;;;;;;;;19.25;14.75;;;;;7.90;82.54;99327.03;5063629;27;56747;-67
2024/03/02 01:24:16;;;;;;;;;2.50;0.75;;;;;7.89;82.64;99325.34;5062396;28;45557;-67
2024/03/02 01:26:41;;;;;;;;;3.75;1.00;;;;;7.88;82.48;99331.44;5073110;27;45317;-66
2024/03/02 01:29:10;;;;;;;;;2.25;1.00;;;;;7.85;82.66;99332.41;5088863;27;45542;-67
2024/03/02 01:31:35;;;;;;;;;1.25;0.25;;;;;7.85;82.65;99327.22;5070102;27;51976;-68
2024/03/02 01:34:01;;;;;;;;;0.75;0.75;;;;;7.84;82.80;99322.06;5064814;28;72717;-68
2024/03/02 01:36:26;;;;;;;;;5.25;1.25;;;;;7.80;82.57;99327.38;5067922;28;72533;-68
2024/03/02 01:38:51;;;;;;;;;2.50;0.00;;;;;7.79;82.70;99324.81;5072780;27;51634;-66
2024/03/02 01:41:16;;;;;;;;;1.00;1.00;;;;;7.81;82.70;99315.22;5071768;27;45275;-66
2024/03/02 01:43:42;;;;;;;;;1.50;1.00;;;;;7.80;82.81;99316.97;5071192;28;73634;-66
2024/03/02 01:46:07;;;;;;;;;1.00;1.00;;;;;7.81;82.74;99315.22;5060786;28;47018;-67
2024/03/02 01:48:34;;;;;;;;;2.00;1.00;;;;;7.81;82.78;99312.63;5072801;27;45404;-67
2024/03/02 01:50:59;;;;;;;;;2.00;0.75;;;;;7.82;82.92;99313.47;5077087;27;45340;-66
2024/03/02 01:53:24;;;;;;;;;2.75;1.00;;;;;7.85;82.75;99313.34;5086184;27;45410;-66
2024/03/02 01:55:50;;;;;;;;;0.75;0.75;;;;;7.83;82.77;99299.53;5070200;28;45367;-65
2024/03/02 01:58:15;;;;;;;;;1.00;1.00;;;;;7.84;82.78;99294.25;5070453;27;45544;-68
2024/03/02 02:00:40;;;;;;;;;4.00;1.00;;;;;7.82;82.55;99290.03;5073507;28;45508;-67
2024/03/02 02:03:06;;;;;;;;;1.00;1.00;;;;;7.78;82.47;99290.13;5067360;28;72045;-66
2024/03/02 02:05:32;;;;;;;;;0.50;0.00;;;;;7.76;82.46;99284.13;5077591;27;46523;-68
2024/03/02 02:07:58;;;;;;;;;1.00;1.00;;;;;7.71;82.63;99283.47;5079129;27;45342;-66
2024/03/02 02:10:24;;;;;;;;;1.00;1.00;;;;;7.69;82.83;99280.06;5073905;27;45663;-66
2024/03/02 02:12:49;;;;;;;;;7.00;1.00;;;;;7.66;82.88;99277.59;5077192;27;45374;-68
2024/03/02 02:15:30;;;;;;;;;1.00;1.00;;;;;7.63;82.64;99276.84;5061703;27;45352;-67
2024/03/02 02:17:57;;;;;;;;;2.50;1.00;;;;;7.60;83.17;99283.88;5074310;27;45819;-66
2024/03/02 02:20:23;;;;;;;;;5.75;0.00;;;;;7.59;83.20;99291.75;5068039;28;45361;-66
2024/03/02 02:22:54;;;;;;;;;0.75;0.75;;;;;7.60;83.28;99283.03;5078013;27;45637;-65
2024/03/02 02:25:20;;;;;;;;;0.00;0.00;;;;;7.56;83.41;99277.09;5076893;27;45990;-66
2024/03/02 02:27:46;;;;;;;;;2.00;1.00;;;;;7.54;83.21;99272.84;5078379;27;45885;-66
2024/03/02 02:30:12;;;;;;;;;3.75;1.00;;;;;7.55;83.47;99271.94;5076547;28;64988;-66
2024/03/02 02:32:37;;;;;;;;;1.00;0.00;;;;;7.52;83.33;99270.28;5070842;27;45501;-67
2024/03/02 02:35:03;;;;;;;;;1.75;0.00;;;;;7.49;83.48;99265.22;5069597;28;45745;-66
2024/03/02 02:37:28;;;;;;;;;2.25;1.00;;;;;7.51;83.56;99259.97;5069283;27;45426;-67
2024/03/02 02:39:54;;;;;;;;;0.75;0.75;;;;;7.50;83.54;99260.88;5076251;27;55456;-67
2024/03/02 02:42:19;;;;;;;;;0.00;0.00;;;;;7.48;83.78;99257.47;5046514;28;45566;-67
2024/03/02 02:44:44;;;;;;;;;0.00;0.00;;;;;7.45;83.50;99255.81;5063088;27;75570;-67
2024/03/02 02:47:10;;;;;;;;;2.75;0.00;;;;;7.43;83.64;99244.63;5068428;27;45319;-67
2024/03/02 02:49:35;;;;;;;;;3.50;0.50;;;;;7.43;83.67;99242.03;5075853;27;45223;-67
2024/03/02 02:52:00;;;;;;;;;0.25;0.00;;;;;7.40;83.52;99243.00;5060224;27;67597;-66
2024/03/02 02:54:25;;;;;;;;;2.50;2.00;;;;;7.39;83.67;99237.84;5069891;27;75671;-67
2024/03/02 02:56:51;;;;;;;;;2.25;0.00;;;;;7.41;84.25;99229.06;5066082;27;72295;-66
2024/03/02 02:59:16;;;;;;;;;0.00;0.00;;;;;7.42;83.47;99235.13;5076748;28;45430;-67
2024/03/02 03:01:41;;;;;;;;;3.00;1.00;;;;;7.39;83.55;99227.44;5071108;27;45374;-66
2024/03/02 03:04:07;;;;;;;;;1.75;1.75;;;;;7.39;84.05;99227.44;5070516;27;68828;-67
2024/03/02 03:06:32;;;;;;;;;1.50;0.00;;;;;7.40;83.71;99221.31;5076971;27;45393;-66
2024/03/02 03:08:58;;;;;;;;;1.75;0.00;;;;;7.37;83.94;99219.69;5081339;27;67099;-67
2024/03/02 03:11:24;;;;;;;;;2.00;0.25;;;;;7.39;83.87;99222.22;5081291;27;45248;-67
2024/03/02 03:13:50;;;;;;;;;2.00;0.75;;;;;7.39;83.93;99219.63;5080381;27;45435;-67
2024/03/02 03:16:16;;;;;;;;;1.75;1.00;;;;;7.40;83.60;99216.09;5078642;28;64681;-67
2024/03/02 03:18:41;;;;;;;;;1.50;1.50;;;;;7.39;83.39;99224.84;5078676;27;45362;-67
2024/03/02 03:21:06;;;;;;;;;1.00;0.50;;;;;7.37;83.62;99216.25;5073263;27;68225;-66
2024/03/02 03:23:32;;;;;;;;;1.00;0.00;;;;;7.32;83.74;99206.00;5069035;27;45387;-66
2024/03/02 03:25:57;;;;;;;;;1.50;0.00;;;;;7.34;83.62;99217.19;5075537;27;72171;-66
2024/03/02 03:28:22;;;;;;;;;1.00;1.00;;;;;7.33;83.95;99212.91;5077982;27;68601;-67
2024/03/02 03:30:48;;;;;;;;;1.50;1.50;;;;;7.30;84.09;99209.59;5069156;27;45928;-66
2024/03/02 03:33:14;;;;;;;;;4.75;1.75;;;;;7.29;83.97;99219.13;5078760;27;63328;-66
2024/03/02 03:35:39;;;;;;;;;0.75;0.50;;;;;7.28;83.83;99212.25;5079273;27;45925;-65
2024/03/02 03:38:04;;;;;;;;;4.50;1.25;;;;;7.28;84.13;99226.97;5081634;27;45656;-65
2024/03/02 03:40:30;;;;;;;;;3.25;0.75;;;;;7.22;83.49;99207.25;5080354;27;45232;-67
2024/03/02 03:42:56;;;;;;;;;2.00;0.50;;;;;7.25;83.95;99209.75;5080574;27;72780;-66
2024/03/02 03:45:22;;;;;;;;;1.75;1.75;;;;;7.26;83.99;99221.00;5074416;27;45443;-66
2024/03/02 03:47:47;;;;;;;;;2.00;0.00;;;;;7.24;84.13;99213.25;5074885;27;45449;-66
2024/03/02 03:50:12;;;;;;;;;1.50;0.00;;;;;7.21;84.11;99213.38;5070896;28;45241;-65
2024/03/02 03:52:38;;;;;;;;;0.00;0.00;;;;;7.21;84.19;99215.97;5077583;27;45676;-66
2024/03/02 03:55:05;;;;;;;;;1.50;1.00;;;;;7.20;84.29;99209.91;5070290;27;64064;-66
2024/03/02 03:57:30;;;;;;;;;2.75;0.75;;;;;7.20;84.06;99206.47;5075173;27;45442;-67
2024/03/02 03:59:55;;;;;;;;;3.00;0.00;;;;;7.18;84.32;99216.94;5070694;28;45291;-67
2024/03/02 04:02:21;;;;;;;;;2.00;1.00;;;;;7.15;84.24;99217.06;5072042;27;67002;-68
2024/03/02 04:04:46;;;;;;;;;2.00;0.25;;;;;7.12;84.32;99214.56;5073276;28;69201;-67
2024/03/02 04:07:12;;;;;;;;;1.00;0.00;;;;;7.11;84.29;99209.41;5074800;27;45615;-68
2024/03/02 04:09:37;;;;;;;;;2.50;1.00;;;;;7.07;84.38;99206.09;5075898;27;58133;-67
2024/03/02 04:12:03;;;;;;;;;0.00;0.00;;;;;7.09;84.46;99198.22;5064503;28;68687;-67
2024/03/02 04:14:28;;;;;;;;;2.50;1.00;;;;;7.08;84.38;99201.72;5074812;27;45543;-66
2024/03/02 04:16:54;;;;;;;;;2.50;0.00;;;;;7.07;84.57;99207.84;5077290;27;68686;-66
2024/03/02 04:19:19;;;;;;;;;1.75;1.00;;;;;7.06;84.60;99211.34;5066336;28;45292;-66
2024/03/02 04:21:44;;;;;;;;;1.50;1.00;;;;;7.07;84.63;99207.84;5066806;27;70749;-67
2024/03/02 04:24:09;;;;;;;;;1.50;0.75;;;;;7.07;84.67;99207.84;5071090;28;68626;-67
2024/03/02 04:26:36;;;;;;;;;1.00;1.00;;;;;7.06;84.67;99206.13;5063277;27;66245;-67
2024/03/02 04:29:01;;;;;;;;;0.75;0.00;;;;;7.07;84.60;99205.25;5075063;27;45235;-67
2024/03/02 04:31:27;;;;;;;;;2.75;1.00;;;;;7.00;84.56;99202.84;5077828;27;46693;-67
2024/03/02 04:33:52;;;;;;;;;2.25;1.00;;;;;7.07;84.55;99219.09;5068099;27;73360;-66
2024/03/02 04:36:17;;;;;;;;;1.75;0.00;;;;;7.08;84.35;99204.31;5058155;28;69016;-66
2024/03/02 04:38:43;;;;;;;;;1.00;0.00;;;;;7.06;84.36;99204.38;5074677;27;45284;-67
2024/03/02 04:41:08;;;;;;;;;2.25;0.00;;;;;7.05;84.21;99210.50;5089702;27;45990;-68
2024/03/02 04:43:34;;;;;;;;;4.00;1.00;;;;;7.03;84.45;99192.34;5072674;27;67688;-68
2024/03/02 04:46:00;;;;;;;;;0.75;0.00;;;;;7.02;84.28;99197.59;5059557;28;45293;-67
2024/03/02 04:48:26;;;;;;;;;0.00;0.00;;;;;7.03;84.26;99209.72;5073157;27;45491;-67
2024/03/02 04:50:51;;;;;;;;;2.00;0.50;;;;;6.97;84.15;99191.72;5074323;28;45468;-67
2024/03/02 04:53:16;;;;;;;;;1.00;0.00;;;;;7.01;84.33;99214.97;5067516;27;72415;-67
2024/03/02 04:58:07;;;;;;;;;0.75;0.00;;;;;6.98;84.05;99209.03;5076015;27;46898;-68
2024/03/02 05:00:33;;;;;;;;;0.00;0.00;;;;;6.99;84.16;99210.72;5071453;27;71450;-68
2024/03/02 05:02:58;;;;;;;;;0.00;0.00;;;;;6.98;84.21;99204.66;5067625;28;45374;-65
2024/03/02 05:05:23;;;;;;;;;1.50;0.75;;;;;6.97;84.28;99207.31;5076912;27;69361;-65
2024/03/02 05:07:49;;;;;;;;;0.00;0.00;;;;;6.98;84.19;99209.03;5081827;27;72705;-65
2024/03/02 05:10:14;;;;;;;;;2.00;1.00;;;;;6.97;84.38;99208.16;5065358;27;70682;-66
2024/03/02 05:15:11;;;;;;;;;0.00;0.00;;;;;6.95;84.17;99194.38;5079768;27;45327;-67
2024/03/02 05:17:37;;;;;;;;;1.00;0.00;;;;;6.96;84.42;99190.88;5059301;28;46166;-67
2024/03/02 05:20:04;;;;;;;;;2.00;0.00;;;;;6.99;84.45;99193.38;5073476;27;46230;-67
2024/03/02 05:22:29;;;;;;;;;0.50;0.00;;;;;6.98;84.30;99183.88;5075607;27;45913;-67
2024/03/02 05:24:54;;;;;;;;;0.00;0.00;;;;;7.00;84.47;99173.41;5071133;27;66614;-67
2024/03/02 05:27:20;;;;;;;;;0.00;0.00;;;;;7.03;84.55;99183.69;5081632;27;71612;-67
2024/03/02 05:29:46;;;;;;;;;1.00;0.00;;;;;7.04;84.64;99177.59;5068677;27;46476;-67
2024/03/02 05:32:12;;;;;;;;;0.75;0.00;;;;;7.07;84.67;99177.47;5064903;27;45979;-67
2024/03/02 05:34:37;;;;;;;;;1.00;0.00;;;;;7.09;84.44;99169.63;5088090;27;45534;-66
2024/03/02 05:37:02;;;;;;;;;4.00;0.00;;;;;7.09;84.43;99178.25;5070097;27;71863;-67
2024/03/02 05:39:28;;;;;;;;;1.25;0.00;;;;;7.12;84.66;99179.88;5093473;27;45391;-67
2024/03/02 05:41:53;;;;;;;;;2.25;0.50;;;;;7.13;84.51;99171.19;5065515;27;45710;-67
2024/03/02 05:44:19;;;;;;;;;4.50;2.00;;;;;7.11;84.65;99167.81;5069231;27;45485;-67
2024/03/02 05:46:45;;;;;;;;;7.00;1.50;;;;;7.14;84.63;99173.72;5061340;27;45621;-67
2024/03/02 05:49:10;;;;;;;;;1.00;1.00;;;;;7.15;84.73;99170.25;5069261;27;45944;-67
2024/03/02 05:51:35;;;;;;;;;2.00;0.00;;;;;7.16;84.73;99168.47;5074070;28;45339;-67
2024/03/02 05:54:01;;;;;;;;;1.00;1.00;;;;;7.16;84.79;99171.91;5073648;27;58929;-67
2024/03/02 05:56:26;;;;;;;;;5.25;1.00;;;;;7.17;84.79;99163.22;5076728;28;45425;-66
2024/03/02 06:01:36;;;;;;;;;2.00;1.00;;;;;7.18;84.65;99166.66;5070901;28;45433;-67
2024/03/02 06:04:01;;;;;;;;;1.00;1.00;;;;;7.19;84.78;99166.59;5078082;27;45494;-67
2024/03/02 06:06:27;;;;;;;;;3.25;1.00;;;;;7.18;84.99;99164.06;5077709;27;45427;-67
2024/03/02 06:08:52;;;;;;;;;0.75;0.00;;;;;7.20;85.02;99175.25;5069696;27;46396;-66
2024/03/02 06:11:19;;;;;;;;;1.75;1.00;;;;;7.21;84.86;99183.00;5066480;28;45291;-67
2024/03/02 06:13:44;;;;;;;;;5.00;1.25;;;;;7.22;85.01;99168.22;5071758;27;45504;-67
2024/03/02 06:16:10;;;;;;;;;2.00;2.00;;;;;7.21;85.14;99164.78;5071451;27;45320;-66
2024/03/02 06:18:35;;;;;;;;;1.25;1.00;;;;;7.27;85.18;99171.50;5074695;27;46217;-64
2024/03/02 06:21:03;;;;;;;;;1.00;1.00;;;;;7.31;85.09;99177.44;5070460;28;45409;-66
2024/03/02 06:23:28;;;;;;;;;1.50;1.50;;;;;7.34;84.95;99185.97;5062358;28;46410;-66
2024/03/02 06:25:54;;;;;;;;;2.75;1.00;;;;;7.37;84.98;99180.66;5069366;27;45162;-67
2024/03/02 06:28:19;;;;;;;;;2.50;2.50;;;;;7.42;84.94;99167.47;5069045;28;74395;-67
2024/03/02 06:30:45;;;;;;;;;3.25;1.50;;;;;7.46;84.90;99155.19;5069357;27;64452;-67
2024/03/02 06:33:10;;;;;;;;;2.00;1.00;;;;;7.48;84.95;99151.59;5072134;27;45422;-67
2024/03/02 06:35:35;;;;;;;;;3.75;1.00;;;;;7.53;84.98;99143.63;5076841;27;45453;-67
2024/03/02 06:38:01;;;;;;;;;2.75;1.25;;;;;7.56;84.75;99156.50;5070171;27;73132;-67
2024/03/02 06:40:27;;;;;;;;;12.00;2.00;;;;;7.57;84.66;99156.44;5075111;27;45428;-67
2024/03/02 06:42:52;;;;;;;;;5.75;2.00;;;;;7.58;84.87;99136.47;5076373;27;69407;-66
2024/03/02 06:45:17;;;;;;;;;2.00;1.50;;;;;7.63;84.89;99150.13;5071598;27;67480;-66
2024/03/02 06:47:42;;;;;;;;;1.25;1.00;;;;;7.67;84.91;99151.72;5079029;27;75580;-67
2024/03/02 06:50:09;;;;;;;;;6.75;1.75;;;;;7.71;84.92;99153.28;5079343;27;72290;-67
2024/03/02 06:52:34;;;;;;;;;3.75;1.00;;;;;7.71;84.64;99145.47;5069130;28;45490;-68
2024/03/02 06:55:00;;;;;;;;;2.75;1.00;;;;;7.76;84.59;99159.16;5077643;27;45274;-67
2024/03/02 06:57:25;;;;;;;;;3.00;1.25;;;;;7.80;84.67;99157.25;5072191;27;46239;-67
2024/03/02 06:59:51;;;;;;;;;2.00;1.50;;;;;7.85;84.43;99160.53;5066737;27;52094;-67
2024/03/02 07:02:16;;;;;;;;;6.00;0.25;;;;;7.87;84.32;99163.06;5075574;27;45238;-66
2024/03/02 07:04:42;;;;;;;;;5.75;1.00;;;;;7.94;84.35;99167.13;5063446;27;45467;-66
2024/03/02 07:07:07;;;;;;;;;2.25;0.75;;;;;7.94;84.29;99149.72;5079717;27;46448;-67
2024/03/02 07:09:32;;;;;;;;;3.25;1.00;;;;;8.01;84.03;99150.31;5077182;27;64962;-67
2024/03/02 07:11:58;;;;;;;;;6.25;1.25;;;;;8.06;84.17;99153.59;5066105;27;59270;-67
2024/03/02 07:14:53;;;;;;;;;2.25;1.75;;;;;8.10;83.99;99151.69;5073187;27;61587;-67
2024/03/02 07:17:09;;;;;;;;;2.00;1.50;;;;;8.14;84.23;99137.59;5077060;28;45965;-67
2024/03/02 07:19:35;;;;;;;;;3.00;1.25;;;;;8.18;83.70;99142.63;5077091;27;45813;-67
2024/03/02 07:22:00;;;;;;;;;5.50;2.00;;;;;8.27;84.05;99148.34;5065927;28;68985;-67
2024/03/02 07:24:25;;;;;;;;;2.25;1.25;;;;;8.32;83.71;99149.00;5067379;27;45632;-67
2024/03/02 07:26:51;;;;;;;;;5.00;1.00;;;;;8.34;83.82;99144.59;5066883;27;70921;-65
2024/03/02 07:29:16;;;;;;;;;2.75;1.75;;;;;8.41;83.87;99146.00;5085080;27;45303;-67
2024/03/02 07:31:42;;;;;;;;;3.50;0.75;;;;;8.50;83.54;99150.84;5078690;28;45486;-67
2024/03/02 07:34:07;;;;;;;;;5.75;1.00;;;;;8.59;83.27;99151.34;5049284;28;74369;-67
2024/03/02 07:36:32;;;;;;;;;2.50;1.00;;;;;8.65;83.33;99144.09;5082726;27;71328;-68
2024/03/02 07:38:58;;;;;;;;;2.00;0.50;;;;;8.74;83.11;99148.06;5078557;27;71708;-67
2024/03/02 07:41:23;;;;;;;;;6.00;1.75;;;;;8.79;83.06;99142.66;5069466;27;45741;-67
2024/03/02 07:43:48;;;;;;;;;2.75;1.50;;;;;8.84;82.69;99136.28;5069196;27;69226;-67
2024/03/02 07:46:14;;;;;;;;;1.00;1.00;;;;;8.90;82.64;99137.78;5085064;27;74379;-67
2024/03/02 07:48:39;;;;;;;;;3.25;1.50;;;;;8.95;82.52;99140.19;5067183;27;45394;-67
2024/03/02 07:51:05;;;;;;;;;1.00;1.00;;;;;8.98;82.42;99130.44;5073471;27;46711;-67
2024/03/02 07:53:30;;;;;;;;;3.75;1.25;;;;;9.03;82.10;99125.00;5076653;27;73054;-66
2024/03/02 07:56:01;;;;;;;;;0.00;0.00;;;;;9.09;82.08;99133.41;5074119;27;45931;-66
2024/03/02 07:58:26;;;;;;;;;2.00;0.50;;;;;9.13;81.88;99136.72;5074415;27;45470;-67
2024/03/02 08:00:52;;;;;;;;;3.00;1.00;;;;;9.19;81.55;99128.59;5069986;28;54764;-68
2024/03/02 08:03:17;;;;;;;;;2.50;1.00;;;;;9.31;81.42;99137.59;5069230;27;45698;-67
2024/03/02 08:05:44;;;;;;;;;3.25;1.00;;;;;9.41;81.50;99133.63;5066773;28;71218;-65
2024/03/02 08:08:09;;;;;;;;;5.75;0.00;;;;;9.52;81.12;99127.06;5075790;27;45500;-66
2024/03/02 08:10:35;;;;;;;;;0.25;0.25;;;;;9.59;80.63;99131.06;5074589;27;45601;-66
2024/03/02 08:13:01;;;;;;;;;1.75;0.25;;;;;9.61;80.31;99135.28;5074059;28;45457;-66
2024/03/02 08:15:26;;;;;;;;;3.00;1.00;;;;;9.63;80.27;99132.59;5063034;27;47100;-66
2024/03/02 08:17:51;;;;;;;;;1.50;0.00;;;;;9.62;82.65;99133.53;5071088;27;46282;-66
2024/03/02 08:20:17;;;;;;;;;2.50;1.00;;;;;9.61;80.45;99139.66;5068915;27;69298;-66
2024/03/02 08:22:42;;;;;;;;;1.00;1.00;;;;;9.63;80.13;99129.97;5067794;27;45442;-67
2024/03/02 08:25:08;;;;;;;;;1.00;0.00;;;;;9.66;80.24;99138.50;5078861;28;71645;-67
2024/03/02 08:27:33;;;;;;;;;5.00;0.00;;;;;9.67;79.79;99134.16;5078275;27;45462;-67
2024/03/02 08:29:59;;;;;;;;;2.00;0.00;;;;;9.65;79.90;99131.63;5072431;28;45504;-67
2024/03/02 08:32:24;;;;;;;;;1.00;1.00;;;;;9.64;79.90;99131.69;5070542;28;45599;-65
2024/03/02 08:34:49;;;;;;;;;3.00;1.75;;;;;9.62;80.40;99129.16;5069252;28;75571;-68
2024/03/02 08:37:15;;;;;;;;;2.25;0.00;;;;;9.58;80.13;99129.34;5069578;27;63083;-72
2024/03/02 08:39:40;;;;;;;;;0.00;0.00;;;;;9.59;80.08;99121.44;5066307;28;45550;-67
2024/03/02 08:42:06;;;;;;;;;1.00;1.00;;;;;9.57;79.79;99132.91;5069015;28;75021;-68
2024/03/02 08:44:31;;;;;;;;;2.75;0.00;;;;;9.53;79.90;99128.75;5068724;28;45447;-61
2024/03/02 08:46:57;;;;;;;;;2.25;1.00;;;;;9.50;79.33;99125.34;5066772;27;45500;-67
2024/03/02 08:49:22;;;;;;;;;3.00;0.25;;;;;9.50;79.40;99134.97;5077978;28;54515;-66
2024/03/02 08:51:54;;;;;;;;;0.00;0.00;;;;;9.48;79.08;99136.81;5063064;28;73201;-69
2024/03/02 08:54:22;;;;;;;;;4.00;0.00;;;;;9.48;79.21;99123.75;5075583;28;45363;-68
2024/03/02 08:56:48;;;;;;;;;0.00;0.00;;;;;9.48;78.90;99121.97;5069165;27;45355;-70
2024/03/02 08:59:14;;;;;;;;;0.00;0.00;;;;;9.46;79.05;99123.81;5073162;27;45445;-67
2024/03/02 09:01:41;;;;;;;;;0.75;0.50;;;;;9.49;78.93;99131.50;5061494;28;72122;-64
2024/03/02 09:04:08;;;;;;;;;0.50;0.00;;;;;9.53;79.04;99134.00;5063438;28;46282;-68
2024/03/02 09:06:34;;;;;;;;;1.00;1.00;;;;;9.55;79.18;99132.13;5061007;28;45420;-71
2024/03/02 09:08:59;;;;;;;;;1.75;0.50;;;;;9.55;79.08;99132.13;5077331;27;45178;-63
2024/03/02 09:11:25;;;;;;;;;1.00;1.00;;;;;9.54;79.37;99133.03;5065674;27;73131;-71
2024/03/02 09:13:50;;;;;;;;;0.00;0.00;;;;;9.53;79.53;99131.38;5064657;28;45951;-74
2024/03/02 09:16:15;;;;;;;;;1.00;1.00;;;;;9.56;79.62;99134.69;5061581;28;45407;-68
2024/03/02 09:18:41;;;;;;;;;1.50;0.75;;;;;9.57;80.02;99131.13;5067443;28;68127;-70
2024/03/02 09:21:07;;;;;;;;;0.50;0.00;;;;;9.58;80.30;99138.06;5073275;28;45649;-72
2024/03/02 09:23:33;;;;;;;;;0.00;0.00;;;;;9.60;80.27;99133.59;5067649;28;46084;-71
2024/03/02 09:25:59;;;;;;;;;1.00;1.00;;;;;9.60;80.68;99127.53;5075764;28;45378;-69
2024/03/02 09:28:24;;;;;;;;;1.25;1.00;;;;;9.62;80.55;99125.69;5074589;28;45478;-71
2024/03/02 09:30:49;;;;;;;;;1.00;1.00;;;;;9.62;80.49;99128.31;5062659;28;72307;-69
2024/03/02 09:33:15;;;;;;;;;2.75;0.00;;;;;9.59;80.98;99128.44;5064572;28;75810;-67
2024/03/02 09:35:40;;;;;;;;;1.00;1.00;;;;;9.59;81.37;99123.22;5066387;27;45454;-67
2024/03/02 09:38:06;;;;;;;;;3.25;1.75;;;;;9.59;81.36;99125.84;5069140;27;60338;-66
2024/03/02 09:40:31;;;;;;;;;2.50;1.00;;;;;9.62;81.81;99120.47;5063624;28;45319;-71
2024/03/02 09:42:57;;;;;;;;;6.00;1.25;;;;;9.66;82.36;99127.22;5064174;28;47619;-69
2024/03/02 09:45:24;;;;;;;;;2.00;1.00;;;;;9.65;82.10;99118.56;5074537;28;45368;-72
2024/03/02 09:47:49;;;;;;;;;1.75;1.00;;;;;9.65;82.03;99108.09;5067531;27;45359;-70
2024/03/02 09:50:15;;;;;;;;;3.50;2.25;;;;;9.68;82.50;99113.19;5066461;27;45474;-72
2024/03/02 09:52:42;;;;;;;;;5.00;2.00;;;;;9.72;82.59;99108.66;5070159;28;45391;-71
2024/03/02 09:55:08;;;;;;;;;2.75;2.00;;;;;9.76;82.75;99107.56;5078195;27;45479;-70
2024/03/02 09:57:33;;;;;;;;;2.00;2.00;;;;;9.82;82.57;99104.63;5079139;27;45458;-71
2024/03/02 09:59:59;;;;;;;;;5.00;3.00;;;;;9.92;82.82;99088.53;5082029;28;45937;-71
2024/03/02 10:02:24;;;;;;;;;3.00;3.00;;;;;10.01;83.17;99088.03;5080399;28;45949;-71
2024/03/02 10:04:50;;;;;;;;;4.00;3.00;;;;;10.08;82.77;99082.41;5068098;28;45221;-70
2024/03/02 10:07:17;;;;;;;;;6.25;4.00;;;;;10.23;82.97;99088.63;5076899;28;45285;-71
2024/03/02 10:09:47;;;;;;;;;6.75;3.00;;;;;10.31;82.50;99083.03;5076557;27;45219;-69
2024/03/02 10:12:16;;;;;;;;;2.50;0.50;;;;;10.40;82.57;99074.69;5090570;27;45750;-71
2024/03/02 10:14:42;;;;;;;;;3.75;3.00;;;;;10.51;82.25;99070.66;5063170;28;45336;-71
2024/03/02 10:17:09;;;;;;;;;2.00;2.00;;;;;10.60;82.55;99072.78;5069656;27;45263;-71
2024/03/02 10:19:36;;;;;;;;;5.00;2.00;;;;;10.64;82.09;99067.31;5059972;28;45884;-71
2024/03/02 10:22:03;;;;;;;;;5.75;3.50;;;;;10.73;82.25;99065.09;5053462;28;47647;-71
2024/03/02 10:24:36;;;;;;;;;3.25;3.25;;;;;10.82;82.45;99055.00;5076850;28;45466;-72
2024/03/02 10:27:01;;;;;;;;;4.75;3.00;;;;;10.88;81.94;99068.66;5076499;27;45476;-70
2024/03/02 10:29:29;;;;;;;;;3.25;3.25;;;;;10.86;81.88;99066.13;5073560;28;51543;-71
2024/03/02 10:31:56;;;;;;;;;20.75;15.00;;;;;10.82;81.70;99059.41;5073936;27;45379;-71
2024/03/02 10:34:21;;;;;;;;;13.00;6.50;;;;;10.76;81.71;99064.94;5059915;27;45265;-70
2024/03/02 10:36:47;;;;;;;;;5.25;2.00;;;;;10.70;81.82;99060.06;5070684;27;45374;-70
2024/03/02 10:39:13;;;;;;;;;4.25;2.00;;;;;10.62;82.07;99061.31;5076580;28;45439;-71
2024/03/02 10:41:40;;;;;;;;;3.25;2.00;;;;;10.61;83.08;99064.03;5080155;27;46041;-71
2024/03/02 10:44:07;;;;;;;;;5.00;3.00;;;;;10.59;82.10;99061.47;5077562;27;45277;-71
2024/03/02 10:46:33;;;;;;;;;3.50;2.50;;;;;10.56;82.13;99060.81;5076766;28;45401;-71
2024/03/02 10:49:00;;;;;;;;;2.50;2.25;;;;;10.55;82.63;99054.75;5069534;27;45520;-71
2024/03/02 10:51:27;;;;;;;;;4.00;2.25;;;;;10.53;84.28;99055.72;5061258;27;45465;-71
2024/03/02 10:53:53;;;;;;;;;4.00;3.00;;;;;10.52;83.51;99051.44;5066828;28;45300;-71
2024/03/02 10:56:25;;;;;;;;;5.00;4.00;;;;;10.54;83.45;99063.50;5060228;28;46433;-71
2024/03/02 10:58:51;;;;;;;;;4.00;2.00;;;;;10.56;83.35;99059.03;5070590;27;45369;-71
2024/03/02 11:01:17;;;;;;;;;5.00;3.00;;;;;10.61;83.13;99058.78;5072084;28;46735;-70
2024/03/02 11:03:44;;;;;;;;;4.75;2.00;;;;;10.62;82.74;99065.69;5067331;27;45447;-70
2024/03/02 11:06:11;;;;;;;;;5.50;3.25;;;;;10.58;82.71;99056.34;5073660;28;45294;-70
2024/03/02 11:08:39;;;;;;;;;4.00;2.75;;;;;10.58;82.44;99053.72;5072106;28;64049;-71
2024/03/02 11:11:15;;;;;;;;;2.00;1.25;;;;;10.67;82.49;99061.06;5072044;27;46538;-71
2024/03/02 11:13:42;;;;;;;;;2.00;2.00;;;;;10.69;81.86;99058.34;5067018;28;49275;-72
2024/03/02 11:16:14;;;;;;;;;4.00;2.00;;;;;10.68;81.80;99052.28;5067224;28;45279;-71
2024/03/02 11:18:40;;;;;;;;;2.00;1.00;;;;;10.74;81.83;99056.34;5079501;27;45364;-71
2024/03/02 11:21:06;;;;;;;;;3.00;2.00;;;;;10.82;82.00;99044.53;5079812;28;58115;-71
2024/03/02 11:23:33;;;;;;;;;9.75;2.25;;;;;10.96;81.65;99045.53;5083205;27;72176;-71
2024/03/02 11:26:21;;;;;;;;;3.00;1.00;;;;;11.12;81.54;99046.38;5072550;27;45275;-71
2024/03/02 11:28:46;;;;;;;;;2.00;2.00;;;;;11.17;81.09;99035.63;5078259;27;45542;-71
2024/03/02 11:31:12;;;;;;;;;4.00;2.50;;;;;11.26;80.77;99036.88;5076386;27;48185;-71
2024/03/02 11:33:37;;;;;;;;;4.75;1.50;;;;;11.33;80.64;99035.59;5065015;27;45419;-71
2024/03/02 11:36:03;;;;;;;;;1.25;1.00;;;;;11.34;80.43;99043.34;5073611;27;45403;-70
2024/03/02 11:38:31;;;;;;;;;2.75;2.75;;;;;11.30;80.01;99047.09;5074120;27;45512;-71
2024/03/02 11:40:56;;;;;;;;;3.75;3.50;;;;;11.24;80.94;99042.19;5067325;28;47804;-71